Time;durP1;ratioP1;P1;durP2;ratioP2;P2;SDS_P1;SDS_P2;PMS_P1;PMS_P2;Temp;Humidity;BMP_temperature;BMP_pressure;BME280_temperature;BME280_humidity;BME280_pressure;Samples;Min_cycle;Max_cycle;Signal;HPM_P1;HPM_P2
2021/01/11 00:00:08;;;;;;;;;;;;;;;;;;5033443;28;19931;-57
2021/01/11 00:02:34;;;;;;;;;;;;;;;;;;5033338;28;19924;-58
2021/01/11 00:05:00;;;;;;;;;;;;;;;;;;5033306;28;19916;-55
2021/01/11 00:07:26;;;;;;;;;;;;;;;;;;5033534;28;19925;-57
2021/01/11 00:09:52;;;;;;;;;;;;;;;;;;5035462;28;19950;-57
2021/01/11 00:12:19;;;;;;;;;;;;;;;;;;5037000;28;19949;-57
2021/01/11 00:14:44;;;;;;;;;;;;;;;;;;5037082;28;19955;-57
2021/01/11 00:17:10;;;;;;;;;;;;;;;;;;5037233;28;20042;-57
2021/01/11 00:19:36;;;;;;;;;;;;;;;;;;5037218;28;19944;-55
2021/01/11 00:22:02;;;;;;;;;;;;;;;;;;5043954;28;19955;-57
2021/01/11 00:24:28;;;;;;;;;;;;;;;;;;5056793;28;20434;-56
2021/01/11 00:26:56;;;;;;;;;;;;;;;;;;5056661;28;20297;-57
2021/01/11 00:29:22;;;;;;;;;;;;;;;;;;5057053;28;19947;-57
2021/01/11 00:31:48;;;;;;;;;;;;;;;;;;5056856;28;19996;-57
2021/01/11 00:34:14;;;;;;;;;;;;;;;;;;5056604;28;19930;-55
2021/01/11 00:36:40;;;;;;;;;;;;;;;;;;5056518;28;19948;-58
2021/01/11 00:39:06;;;;;;;;;;;;;;;;;;5056926;28;19945;-56
2021/01/11 00:41:32;;;;;;;;;;;;;;;;;;5056726;28;19924;-57
2021/01/11 00:43:58;;;;;;;;;;;;;;;;;;5056515;28;20282;-52
2021/01/11 00:46:23;;;;;;;;;;;;;;;;;;5056720;28;19923;-57
2021/01/11 00:48:49;;;;;;;;;;;;;;;;;;5056593;28;19935;-57
2021/01/11 00:51:15;;;;;;;;;;;;;;;;;;5056648;28;20281;-57
2021/01/11 00:53:44;;;;;;;;;;;;;;;;;;5056230;28;19951;-57
2021/01/11 00:56:10;;;;;;;;;;;;;;;;;;5056444;28;19960;-57
2021/01/11 00:58:36;;;;;;;;;;;;;;;;;;5056165;28;19923;-57
2021/01/11 01:01:02;;;;;;;;;;;;;;;;;;5038335;28;19927;-57
2021/01/11 01:03:28;;;;;;;;;;;;;;;;;;5055995;28;19925;-57
2021/01/11 01:05:53;;;;;;;;;;;;;;;;;;5056162;28;20327;-57
2021/01/11 01:08:19;;;;;;;;;;;;;;;;;;5056023;28;19927;-56
2021/01/11 01:10:45;;;;;;;;;;;;;;;;;;5055880;28;19925;-58
2021/01/11 01:13:11;;;;;;;;;;;;;;;;;;5055847;28;19967;-57
2021/01/11 01:15:37;;;;;;;;;;;;;;;;;;5055872;28;19926;-53
2021/01/11 01:18:03;;;;;;;;;;;;;;;;;;5055626;28;19924;-57
2021/01/11 01:20:29;;;;;;;;;;;;;;;;;;5055636;28;20048;-56
2021/01/11 01:22:55;;;;;;;;;;;;;;;;;;5055419;28;19961;-57
2021/01/11 01:25:21;;;;;;;;;;;;;;;;;;5055984;28;19908;-57
2021/01/11 01:27:47;;;;;;;;;;;;;;;;;;5055665;28;19947;-57
2021/01/11 01:30:13;;;;;;;;;;;;;;;;;;5055961;28;20118;-56
2021/01/11 01:32:39;;;;;;;;;;;;;;;;;;5055712;28;19944;-58
2021/01/11 01:35:05;;;;;;;;;;;;;;;;;;5055764;28;19956;-57
2021/01/11 01:37:31;;;;;;;;;;;;;;;;;;5055376;28;20009;-56
2021/01/11 01:39:57;;;;;;;;;;;;;;;;;;5055439;28;19932;-57
2021/01/11 01:42:23;;;;;;;;;;;;;;;;;;5055341;28;19923;-57
2021/01/11 01:44:49;;;;;;;;;;;;;;;;;;5055571;28;20400;-56
2021/01/11 01:47:15;;;;;;;;;;;;;;;;;;5055596;28;19950;-57
2021/01/11 01:49:41;;;;;;;;;;;;;;;;;;5055474;28;20309;-57
2021/01/11 01:52:07;;;;;;;;;;;;;;;;;;5055360;28;19926;-57
2021/01/11 01:54:33;;;;;;;;;;;;;;;;;;5037228;28;19923;-57
2021/01/11 01:56:59;;;;;;;;;;;;;;;;;;5055081;28;19924;-57
2021/01/11 01:59:24;;;;;;;;;;;;;;;;;;5054953;28;20291;-58
2021/01/11 02:01:50;;;;;;;;;;;;;;;;;;5054941;28;19916;-58
2021/01/11 02:04:16;;;;;;;;;;;;;;;;;;5054801;28;19931;-57
2021/01/11 02:06:42;;;;;;;;;;;;;;;;;;5054924;28;19909;-57
2021/01/11 02:09:08;;;;;;;;;;;;;;;;;;5054868;28;19931;-57
2021/01/11 02:11:35;;;;;;;;;;;;;;;;;;5054857;28;19966;-57
2021/01/11 02:14:01;;;;;;;;;;;;;;;;;;5054688;28;19925;-57
2021/01/11 02:16:27;;;;;;;;;;;;;;;;;;5055436;28;20035;-58
2021/01/11 02:18:53;;;;;;;;;;;;;;;;;;5054610;28;20397;-58
2021/01/11 02:21:19;;;;;;;;;;;;;;;;;;5054849;28;19938;-54
2021/01/11 02:23:45;;;;;;;;;;;;;;;;;;5054913;28;20385;-56
2021/01/11 02:26:11;;;;;;;;;;;;;;;;;;5054753;28;19924;-57
2021/01/11 02:28:37;;;;;;;;;;;;;;;;;;5036696;28;19932;-58
2021/01/11 02:31:02;;;;;;;;;;;;;;;;;;5054613;28;20397;-58
2021/01/11 02:33:28;;;;;;;;;;;;;;;;;;5054125;28;20277;-58
2021/01/11 02:35:54;;;;;;;;;;;;;;;;;;5054193;28;20011;-57
2021/01/11 02:38:20;;;;;;;;;;;;;;;;;;5054311;28;19927;-58
2021/01/11 02:40:46;;;;;;;;;;;;;;;;;;5054120;28;19923;-57
2021/01/11 02:43:12;;;;;;;;;;;;;;;;;;5054318;28;19922;-57
2021/01/11 02:45:38;;;;;;;;;;;;;;;;;;5054381;28;19950;-57
2021/01/11 02:48:04;;;;;;;;;;;;;;;;;;5054177;28;20393;-58
2021/01/11 02:50:30;;;;;;;;;;;;;;;;;;5053952;28;19933;-57
2021/01/11 02:52:56;;;;;;;;;;;;;;;;;;5054110;28;19993;-56
2021/01/11 02:55:22;;;;;;;;;;;;;;;;;;5053930;28;19932;-57
2021/01/11 02:57:48;;;;;;;;;;;;;;;;;;5053904;28;19956;-57
2021/01/11 03:00:14;;;;;;;;;;;;;;;;;;5053878;28;20336;-58
2021/01/11 03:02:40;;;;;;;;;;;;;;;;;;5053995;28;20388;-57
2021/01/11 03:05:06;;;;;;;;;;;;;;;;;;5053660;28;20009;-57
2021/01/11 03:07:32;;;;;;;;;;;;;;;;;;5053977;28;20414;-56
2021/01/11 03:09:58;;;;;;;;;;;;;;;;;;5053546;28;19912;-50
2021/01/11 03:12:24;;;;;;;;;;;;;;;;;;5054260;28;20448;-58
2021/01/11 03:14:50;;;;;;;;;;;;;;;;;;5053820;28;20002;-58
2021/01/11 03:17:16;;;;;;;;;;;;;;;;;;5053610;28;19943;-57
2021/01/11 03:19:42;;;;;;;;;;;;;;;;;;5053704;28;19923;-57
2021/01/11 03:22:08;;;;;;;;;;;;;;;;;;5053577;28;19917;-57
2021/01/11 03:24:34;;;;;;;;;;;;;;;;;;5053568;28;20332;-58
2021/01/11 03:27:00;;;;;;;;;;;;;;;;;;5053801;28;19920;-57
2021/01/11 03:29:26;;;;;;;;;;;;;;;;;;5053551;28;19909;-57
2021/01/11 03:31:52;;;;;;;;;;;;;;;;;;5053563;28;19909;-57
2021/01/11 03:34:18;;;;;;;;;;;;;;;;;;5053659;28;19981;-58
2021/01/11 03:36:44;;;;;;;;;;;;;;;;;;5053587;28;19958;-57
2021/01/11 03:39:10;;;;;;;;;;;;;;;;;;5053775;28;20395;-57
2021/01/11 03:41:35;;;;;;;;;;;;;;;;;;5053392;28;20295;-56
2021/01/11 03:44:01;;;;;;;;;;;;;;;;;;5054803;28;19920;-57
2021/01/11 03:46:27;;;;;;;;;;;;;;;;;;5057396;28;20247;-57
2021/01/11 03:48:53;;;;;;;;;;;;;;;;;;5057520;28;19931;-58
2021/01/11 03:51:19;;;;;;;;;;;;;;;;;;5057692;28;19979;-54
2021/01/11 03:53:45;;;;;;;;;;;;;;;;;;5057335;28;19985;-58
2021/01/11 03:56:11;;;;;;;;;;;;;;;;;;5057699;28;19941;-57
2021/01/11 03:58:37;;;;;;;;;;;;;;;;;;5057596;28;20006;-56
2021/01/11 04:01:03;;;;;;;;;;;;;;;;;;5057508;28;20023;-57
2021/01/11 04:05:55;;;;;;;;;;;;;;;;;;5039243;28;19955;-57
2021/01/11 04:08:21;;;;;;;;;;;;;;;;;;5057048;28;19928;-57
2021/01/11 04:10:47;;;;;;;;;;;;;;;;;;5057133;28;19956;-57
2021/01/11 04:13:13;;;;;;;;;;;;;;;;;;5057033;28;19966;-57
2021/01/11 04:15:39;;;;;;;;;;;;;;;;;;5057010;28;20388;-57
2021/01/11 04:18:05;;;;;;;;;;;;;;;;;;5056874;28;19946;-58
2021/01/11 04:20:31;;;;;;;;;;;;;;;;;;5056918;28;20039;-57
2021/01/11 04:22:57;;;;;;;;;;;;;;;;;;5056704;28;20323;-57
2021/01/11 04:25:24;;;;;;;;;;;;;;;;;;5057122;28;19925;-57
2021/01/11 04:27:50;;;;;;;;;;;;;;;;;;5056975;28;19924;-57
2021/01/11 04:30:16;;;;;;;;;;;;;;;;;;5056746;28;20582;-58
2021/01/11 04:32:42;;;;;;;;;;;;;;;;;;5056619;28;19980;-58
2021/01/11 04:35:08;;;;;;;;;;;;;;;;;;5056982;28;19932;-57
2021/01/11 04:37:34;;;;;;;;;;;;;;;;;;5056390;28;20350;-57
2021/01/11 04:40:00;;;;;;;;;;;;;;;;;;5056577;28;19925;-51
2021/01/11 04:42:26;;;;;;;;;;;;;;;;;;5056347;28;19932;-58
2021/01/11 04:44:52;;;;;;;;;;;;;;;;;;5056832;28;19947;-58
2021/01/11 04:47:18;;;;;;;;;;;;;;;;;;5056321;28;20386;-58
2021/01/11 04:49:44;;;;;;;;;;;;;;;;;;5056526;28;19930;-57
2021/01/11 04:52:10;;;;;;;;;;;;;;;;;;5056625;28;19923;-57
2021/01/11 04:54:36;;;;;;;;;;;;;;;;;;5056053;28;19976;-57
2021/01/11 04:57:02;;;;;;;;;;;;;;;;;;5056315;28;20359;-57
2021/01/11 04:59:28;;;;;;;;;;;;;;;;;;5056113;28;19927;-57
2021/01/11 05:01:54;;;;;;;;;;;;;;;;;;5038386;28;19920;-55
2021/01/11 05:04:20;;;;;;;;;;;;;;;;;;5056022;28;20294;-58
2021/01/11 05:06:46;;;;;;;;;;;;;;;;;;5056063;28;19924;-52
2021/01/11 05:09:15;;;;;;;;;;;;;;;;;;5056285;28;19930;-57
2021/01/11 05:11:41;;;;;;;;;;;;;;;;;;5055820;28;19928;-58
2021/01/11 05:14:07;;;;;;;;;;;;;;;;;;5056091;28;19923;-58
2021/01/11 05:16:33;;;;;;;;;;;;;;;;;;5056054;28;19949;-57
2021/01/11 05:19:01;;;;;;;;;;;;;;;;;;5056078;28;20349;-57
2021/01/11 05:21:27;;;;;;;;;;;;;;;;;;5055826;28;19965;-58
2021/01/11 05:23:53;;;;;;;;;;;;;;;;;;5037792;28;19963;-57
2021/01/11 05:26:19;;;;;;;;;;;;;;;;;;5055633;28;20433;-58
2021/01/11 05:28:44;;;;;;;;;;;;;;;;;;5055770;28;19919;-57
2021/01/11 05:31:11;;;;;;;;;;;;;;;;;;5055942;28;20004;-58
2021/01/11 05:33:36;;;;;;;;;;;;;;;;;;5035852;28;19948;-58
2021/01/11 05:36:02;;;;;;;;;;;;;;;;;;5047581;28;20385;-57
2021/01/11 05:38:28;;;;;;;;;;;;;;;;;;5052694;28;19937;-55
2021/01/11 05:40:54;;;;;;;;;;;;;;;;;;5053640;28;19928;-58
2021/01/11 05:43:20;;;;;;;;;;;;;;;;;;5054806;28;19943;-57
2021/01/11 05:45:46;;;;;;;;;;;;;;;;;;5055426;28;19924;-57
2021/01/11 05:48:12;;;;;;;;;;;;;;;;;;5055480;28;19932;-57
2021/01/11 05:50:38;;;;;;;;;;;;;;;;;;5055064;28;20409;-57
2021/01/11 05:53:04;;;;;;;;;;;;;;;;;;5055467;28;19929;-56
2021/01/11 05:55:30;;;;;;;;;;;;;;;;;;5055135;28;19925;-57
2021/01/11 05:57:56;;;;;;;;;;;;;;;;;;5054972;28;19949;-57
2021/01/11 06:00:22;;;;;;;;;;;;;;;;;;5054939;28;20015;-57
2021/01/11 06:02:49;;;;;;;;;;;;;;;;;;5055181;28;19974;-57
2021/01/11 06:05:15;;;;;;;;;;;;;;;;;;5054741;28;19925;-57
2021/01/11 06:07:41;;;;;;;;;;;;;;;;;;5053905;28;19929;-58
2021/01/11 06:10:07;;;;;;;;;;;;;;;;;;5054816;28;19925;-57
2021/01/11 06:12:33;;;;;;;;;;;;;;;;;;5054969;28;19940;-57
2021/01/11 06:14:59;;;;;;;;;;;;;;;;;;5054842;28;19913;-57
2021/01/11 06:17:25;;;;;;;;;;;;;;;;;;5054565;28;20328;-57
2021/01/11 06:19:51;;;;;;;;;;;;;;;;;;5054537;28;19926;-58
2021/01/11 06:22:20;;;;;;;;;;;;;;;;;;5054029;28;19959;-59
2021/01/11 06:24:46;;;;;;;;;;;;;;;;;;5053885;28;20281;-57
2021/01/11 06:27:12;;;;;;;;;;;;;;;;;;5036640;28;19932;-57
2021/01/11 06:29:38;;;;;;;;;;;;;;;;;;5054311;28;20409;-57
2021/01/11 06:32:04;;;;;;;;;;;;;;;;;;5054639;28;19934;-56
2021/01/11 06:34:30;;;;;;;;;;;;;;;;;;5036351;28;20388;-57
2021/01/11 06:36:56;;;;;;;;;;;;;;;;;;5036422;28;19996;-58
2021/01/11 06:39:22;;;;;;;;;;;;;;;;;;5054349;28;20009;-56
2021/01/11 06:41:48;;;;;;;;;;;;;;;;;;5054146;28;20331;-57
2021/01/11 06:44:14;;;;;;;;;;;;;;;;;;5054128;28;19925;-57
2021/01/11 06:46:43;;;;;;;;;;;;;;;;;;5053979;28;19929;-57
2021/01/11 06:49:09;;;;;;;;;;;;;;;;;;5053871;28;19933;-57
2021/01/11 06:51:35;;;;;;;;;;;;;;;;;;5054298;28;19924;-57
2021/01/11 06:54:01;;;;;;;;;;;;;;;;;;5054023;28;19932;-57
2021/01/11 06:56:27;;;;;;;;;;;;;;;;;;5053729;28;19952;-57
2021/01/11 06:58:54;;;;;;;;;;;;;;;;;;5053912;28;19976;-57
2021/01/11 07:01:20;;;;;;;;;;;;;;;;;;5053826;28;19923;-57
2021/01/11 07:03:46;;;;;;;;;;;;;;;;;;5053815;28;19925;-58
2021/01/11 07:06:12;;;;;;;;;;;;;;;;;;5053876;28;19962;-57
2021/01/11 07:08:38;;;;;;;;;;;;;;;;;;5053739;28;19925;-56
2021/01/11 07:11:04;;;;;;;;;;;;;;;;;;5053774;28;19925;-57
2021/01/11 07:13:31;;;;;;;;;;;;;;;;;;5035912;28;19931;-57
2021/01/11 07:15:57;;;;;;;;;;;;;;;;;;5053460;28;20422;-57
2021/01/11 07:18:23;;;;;;;;;;;;;;;;;;5053496;28;20004;-57
2021/01/11 07:20:49;;;;;;;;;;;;;;;;;;5053560;28;19927;-57
2021/01/11 07:23:15;;;;;;;;;;;;;;;;;;5053374;28;19961;-56
2021/01/11 07:25:41;;;;;;;;;;;;;;;;;;5053694;28;19929;-57
2021/01/11 07:28:07;;;;;;;;;;;;;;;;;;5053493;28;19925;-57
2021/01/11 07:30:35;;;;;;;;;;;;;;;;;;5053709;28;19930;-58
2021/01/11 07:33:01;;;;;;;;;;;;;;;;;;5053457;28;19923;-58
2021/01/11 07:35:27;;;;;;;;;;;;;;;;;;5053715;28;19954;-57
2021/01/11 07:37:53;;;;;;;;;;;;;;;;;;5053359;28;20007;-58
2021/01/11 07:40:19;;;;;;;;;;;;;;;;;;5053459;28;19959;-58
2021/01/11 07:42:45;;;;;;;;;;;;;;;;;;5053279;28;20395;-53
2021/01/11 07:45:11;;;;;;;;;;;;;;;;;;5051387;28;19923;-57
2021/01/11 07:47:37;;;;;;;;;;;;;;;;;;5053232;28;19929;-57
2021/01/11 07:50:03;;;;;;;;;;;;;;;;;;5052839;28;20034;-56
2021/01/11 07:52:29;;;;;;;;;;;;;;;;;;5052794;28;19933;-58
2021/01/11 07:54:55;;;;;;;;;;;;;;;;;;5053368;28;19983;-56
2021/01/11 07:57:21;;;;;;;;;;;;;;;;;;5035186;28;19949;-57
2021/01/11 07:59:47;;;;;;;;;;;;;;;;;;5053230;28;19943;-57
2021/01/11 08:02:13;;;;;;;;;;;;;;;;;;5053070;28;19970;-58
2021/01/11 08:04:39;;;;;;;;;;;;;;;;;;5053098;28;19972;-58
2021/01/11 08:07:05;;;;;;;;;;;;;;;;;;5053159;28;19920;-57
2021/01/11 08:09:31;;;;;;;;;;;;;;;;;;5053099;28;20273;-57
2021/01/11 08:11:57;;;;;;;;;;;;;;;;;;5052829;28;20049;-58
2021/01/11 08:14:23;;;;;;;;;;;;;;;;;;5053340;28;19951;-57
2021/01/11 08:16:49;;;;;;;;;;;;;;;;;;5052806;28;20034;-57
2021/01/11 08:19:17;;;;;;;;;;;;;;;;;;5052829;28;19962;-55
2021/01/11 08:21:43;;;;;;;;;;;;;;;;;;5052874;28;20335;-57
2021/01/11 08:24:09;;;;;;;;;;;;;;;;;;5052857;28;20024;-57
2021/01/11 08:26:35;;;;;;;;;;;;;;;;;;5051688;28;19986;-55
2021/01/11 08:29:01;;;;;;;;;;;;;;;;;;5052764;28;19909;-57
2021/01/11 08:31:27;;;;;;;;;;;;;;;;;;5055838;28;19993;-57
2021/01/11 08:33:53;;;;;;;;;;;;;;;;;;5056544;28;19932;-58
2021/01/11 08:36:19;;;;;;;;;;;;;;;;;;5056392;28;19951;-57
2021/01/11 08:38:45;;;;;;;;;;;;;;;;;;5056485;28;19950;-57
2021/01/11 08:41:11;;;;;;;;;;;;;;;;;;5056343;28;19931;-57
2021/01/11 08:43:37;;;;;;;;;;;;;;;;;;5056600;28;19947;-57
2021/01/11 08:46:03;;;;;;;;;;;;;;;;;;5056349;28;19962;-57
2021/01/11 08:48:31;;;;;;;;;;;;;;;;;;5056237;28;19962;-57
2021/01/11 08:50:57;;;;;;;;;;;;;;;;;;5056507;28;19993;-57
2021/01/11 08:53:23;;;;;;;;;;;;;;;;;;5056418;28;20285;-56
2021/01/11 08:55:49;;;;;;;;;;;;;;;;;;5056395;28;19928;-56
2021/01/11 08:58:15;;;;;;;;;;;;;;;;;;5055935;28;20303;-57
2021/01/11 09:00:41;;;;;;;;;;;;;;;;;;5056370;28;20016;-57
2021/01/11 09:03:07;;;;;;;;;;;;;;;;;;5056147;28;20391;-58
2021/01/11 09:05:33;;;;;;;;;;;;;;;;;;5056194;28;19929;-57
2021/01/11 09:08:01;;;;;;;;;;;;;;;;;;5055901;28;19928;-57
2021/01/11 09:10:31;;;;;;;;;;;;;;;;;;5056211;28;20365;-56
2021/01/11 09:12:57;;;;;;;;;;;;;;;;;;5055628;28;20006;-56
2021/01/11 09:15:24;;;;;;;;;;;;;;;;;;5055842;28;19996;-58
2021/01/11 09:17:50;;;;;;;;;;;;;;;;;;5055491;28;19963;-57
2021/01/11 09:20:16;;;;;;;;;;;;;;;;;;5037859;28;20018;-57
2021/01/11 09:22:42;;;;;;;;;;;;;;;;;;5055388;28;19966;-57
2021/01/11 09:25:08;;;;;;;;;;;;;;;;;;5055512;28;19934;-58
2021/01/11 09:27:34;;;;;;;;;;;;;;;;;;5055592;28;19915;-58
2021/01/11 09:29:59;;;;;;;;;;;;;;;;;;5055535;28;20380;-57
2021/01/11 09:32:25;;;;;;;;;;;;;;;;;;5055498;28;19975;-57
2021/01/11 09:34:51;;;;;;;;;;;;;;;;;;5055394;28;19909;-49
2021/01/11 09:37:18;;;;;;;;;;;;;;;;;;5055223;28;19951;-55
2021/01/11 09:39:44;;;;;;;;;;;;;;;;;;5055125;28;19909;-57
2021/01/11 09:42:10;;;;;;;;;;;;;;;;;;5053499;28;19920;-56
2021/01/11 09:44:35;;;;;;;;;;;;;;;;;;5054545;28;20289;-58
2021/01/11 09:47:04;;;;;;;;;;;;;;;;;;5048816;28;19923;-57
2021/01/11 09:49:30;;;;;;;;;;;;;;;;;;5051995;28;19925;-57
2021/01/11 09:51:56;;;;;;;;;;;;;;;;;;5050088;28;19939;-55
2021/01/11 09:54:22;;;;;;;;;;;;;;;;;;5053960;28;19953;-57
2021/01/11 09:56:48;;;;;;;;;;;;;;;;;;5055188;28;19950;-57
2021/01/11 09:59:14;;;;;;;;;;;;;;;;;;5037196;28;20418;-57
2021/01/11 10:01:40;;;;;;;;;;;;;;;;;;5055011;28;19959;-57
2021/01/11 10:04:06;;;;;;;;;;;;;;;;;;5054873;28;19925;-57
2021/01/11 10:06:32;;;;;;;;;;;;;;;;;;5046714;28;20324;-55
2021/01/11 10:08:58;;;;;;;;;;;;;;;;;;5054639;28;19972;-54
2021/01/11 10:11:25;;;;;;;;;;;;;;;;;;5055218;28;19933;-57
2021/01/11 10:13:53;;;;;;;;;;;;;;;;;;5054640;28;20409;-57
2021/01/11 10:16:19;;;;;;;;;;;;;;;;;;5054606;28;20058;-57
2021/01/11 10:18:45;;;;;;;;;;;;;;;;;;5054729;28;19962;-57
2021/01/11 10:21:10;;;;;;;;;;;;;;;;;;5054907;28;19929;-57
2021/01/11 10:23:36;;;;;;;;;;;;;;;;;;5054449;28;20442;-57
2021/01/11 10:26:02;;;;;;;;;;;;;;;;;;5054344;28;19978;-57
2021/01/11 10:28:28;;;;;;;;;;;;;;;;;;5051542;28;19920;-57
2021/01/11 10:30:54;;;;;;;;;;;;;;;;;;5034536;28;19916;-57
2021/01/11 10:33:20;;;;;;;;;;;;;;;;;;5034776;28;19930;-57
2021/01/11 10:35:46;;;;;;;;;;;;;;;;;;5034384;28;20448;-57
2021/01/11 10:38:12;;;;;;;;;;;;;;;;;;5034570;28;20052;-57
2021/01/11 10:40:40;;;;;;;;;;;;;;;;;;5033811;28;20499;-57
2021/01/11 10:43:06;;;;;;;;;;;;;;;;;;5034340;28;20291;-53
2021/01/11 10:45:32;;;;;;;;;;;;;;;;;;5034237;28;19933;-58
2021/01/11 10:47:58;;;;;;;;;;;;;;;;;;5034174;28;19926;-57
2021/01/11 10:50:24;;;;;;;;;;;;;;;;;;5034195;28;20003;-57
2021/01/11 10:52:50;;;;;;;;;;;;;;;;;;5033713;28;19924;-57
2021/01/11 10:55:16;;;;;;;;;;;;;;;;;;5034070;28;19921;-58
2021/01/11 10:57:42;;;;;;;;;;;;;;;;;;5034025;28;19957;-63
2021/01/11 11:00:08;;;;;;;;;;;;;;;;;;5034076;28;19996;-60
2021/01/11 11:02:36;;;;;;;6.28;3.25;;;;;;;;;;5032657;28;24431;-60
2021/01/11 11:05:02;;;;;;;14.63;3.88;;;;;;;;;;5015752;28;20041;-56
2021/01/11 11:07:33;;;;;;;7.05;3.35;;;;;;;;;;5033457;28;20605;-55
2021/01/11 11:10:00;;;;;;;4.25;2.42;;;;;;;;;;5033374;28;20061;-56
2021/01/11 11:12:28;;;;;;;6.78;3.58;;;;;;;;;;5033268;28;20033;-56
2021/01/11 11:14:54;;;;;;;4.10;2.58;;;;;;;;;;5051399;28;20021;-54
2021/01/11 11:17:20;;;;;;;5.18;2.95;;;;;;;;;;5052851;28;20037;-49
2021/01/11 11:19:46;;;;;;;7.70;2.85;;;;;;;;;;5050799;28;20482;-54
2021/01/11 11:22:12;;;;;;;5.03;2.90;;;;;;;;;;5050011;28;20049;-54
2021/01/11 11:24:38;;;;;;;8.18;3.10;;;;;;;;;;5052244;28;20498;-52
2021/01/11 11:27:05;;;;;;;4.00;2.80;;;;;;;;;;5033202;28;20527;-47
2021/01/11 11:29:31;;;;;;;5.32;3.25;;;;;;;;;;5050379;28;20405;-49
2021/01/11 11:31:57;;;;;;;8.98;3.30;;;;;;;;;;5051734;28;20029;-48
2021/01/11 11:34:23;;;;;;;3.92;2.40;;;;;;;;;;5052785;28;20025;-56
2021/01/11 11:36:49;;;;;;;4.20;2.45;;;;;;;;;;5047438;28;20073;-52
2021/01/11 11:39:15;;;;;;;4.93;3.17;;;;;;;;;;5052784;28;20083;-56
2021/01/11 11:41:41;;;;;;;;;;;;;;;;;;5053351;28;20031;-56
2021/01/11 11:44:07;;;;;;;;;;;;;;;;;;5053209;28;19904;-56
2021/01/11 11:46:33;;;;;;;;;;;;;;;;;;5053349;28;19905;-55
2021/01/11 11:48:59;;;;;;;;;;;;;;;;;;5053537;28;19950;-51
2021/01/11 11:51:27;;;;;;;;;;;;;;;;;;5053313;28;19943;-56
2021/01/11 11:53:53;;;;;;;;;;;;;;;;;;5053901;28;19949;-55
2021/01/11 11:56:19;;;;;;;;;;;;;;;;;;5053077;28;20382;-56
2021/01/11 11:58:45;;;;;;;;;;;;;;;;;;5053554;28;19919;-54
2021/01/11 12:01:11;;;;;;;;;;;;;;;;;;5053353;28;19904;-55
2021/01/11 12:03:37;;;;;;;;;;;;;;;;;;5053210;28;19919;-56
2021/01/11 12:06:03;;;;;;;;;;;;;;;;;;5055662;28;20044;-55
2021/01/11 12:08:29;;;;;;;;;;;;;;;;;;5057328;28;19944;-57
2021/01/11 12:10:55;;;;;;;;;;;;;;;;;;5056931;28;19925;-57
2021/01/11 12:13:21;;;;;;;;;;;;;;;;;;5056694;28;20378;-54
2021/01/11 12:15:47;;;;;;;;;;;;;;;;;;5056586;28;19924;-54
2021/01/11 12:18:13;;;;;;;;;;;;;;;;;;5056232;28;19949;-53
2021/01/11 12:20:39;;;;;;;;;;;;;;;;;;5057164;28;20003;-61
2021/01/11 12:23:05;;;;;;;;;;;;;;;;;;5056586;28;19956;-56
2021/01/11 12:25:31;;;;;;;;;;;;;;;;;;5057022;28;19928;-57
2021/01/11 12:27:57;;;;;;;;;;;;;;;;;;5056228;28;20416;-56
2021/01/11 12:30:23;;;;;;;;;;;;;;;;;;5056827;28;20054;-54
2021/01/11 12:32:49;;;;;;;;;;;;;;;;;;5038852;28;19977;-57
2021/01/11 12:35:15;;;;;;;;;;;;;;;;;;5056501;28;19928;-53
2021/01/11 12:37:41;;;;;;;;;;;;;;;;;;5056387;28;19935;-54
2021/01/11 12:40:07;;;;;;;;;;;;;;;;;;5056829;28;19958;-56
2021/01/11 12:42:33;;;;;;;;;;;;;;;;;;5056280;28;20391;-54
2021/01/11 12:45:00;;;;;;;;;;;;;;;;;;5040807;28;19909;-56
2021/01/11 12:47:26;;;;;;;;;;;;;;;;;;5036528;28;19927;-56
2021/01/11 12:49:53;;;;;;;;;;;;;;;;;;5036750;28;19994;-56
2021/01/11 12:52:19;;;;;;;;;;;;;;;;;;5036368;28;19975;-57
2021/01/11 12:54:45;;;;;;;;;;;;;;;;;;5036542;28;19940;-56
2021/01/11 12:57:11;;;;;;;;;;;;;;;;;;5036575;28;19949;-56
2021/01/11 12:59:37;;;;;;;;;;;;;;;;;;5036307;28;19944;-55
2021/01/11 13:02:03;;;;;;;;;;;;;;;;;;5036178;28;19930;-57
2021/01/11 13:04:30;;;;;;;;;;;;;;;;;;5036239;28;19985;-55
2021/01/11 13:06:56;;;;;;;;;;;;;;;;;;5036095;28;19949;-56
2021/01/11 13:09:22;;;;;;;;;;;;;;;;;;5036403;28;19917;-57
2021/01/11 13:11:48;;;;;;;;;;;;;;;;;;5035997;28;20007;-55
2021/01/11 13:14:19;;;;;;;;;;;;;;;;;;5036100;28;19921;-56
2021/01/11 13:16:45;;;;;;;;;;;;;;;;;;5045677;28;20449;-56
2021/01/11 13:19:11;;;;;;;;;;;;;;;;;;5055981;28;19928;-55
2021/01/11 13:21:37;;;;;;;;;;;;;;;;;;5055642;28;20317;-56
2021/01/11 13:24:03;;;;;;;;;;;;;;;;;;5051086;28;19943;-56
2021/01/11 13:26:29;;;;;;;;;;;;;;;;;;5055320;28;19928;-50
2021/01/11 13:28:55;;;;;;;;;;;;;;;;;;5055593;28;20318;-51
2021/01/11 13:31:21;;;;;;;;;;;;;;;;;;5054601;28;19928;-51
2021/01/11 13:33:47;;;;;;;;;;;;;;;;;;5055464;28;20414;-51
2021/01/11 13:36:13;;;;;;;;;;;;;;;;;;5054866;28;20033;-56
2021/01/11 13:38:39;;;;;;;;;;;;;;;;;;5055416;28;20028;-56
2021/01/11 13:41:05;;;;;;;;;;;;;;;;;;5055402;28;19969;-56
2021/01/11 13:43:31;;;;;;;;;;;;;;;;;;5055510;28;19905;-55
2021/01/11 13:45:57;;;;;;;;;;;;;;;;;;5043144;28;19920;-48
2021/01/11 13:48:23;;;;;;;;;;;;;;;;;;5035274;28;20377;-56
2021/01/11 13:50:49;;;;;;;;;;;;;;;;;;5035294;28;19935;-57
2021/01/11 13:53:15;;;;;;;;;;;;;;;;;;5035453;28;20008;-55
2021/01/11 13:55:41;;;;;;;;;;;;;;;;;;5035593;28;19947;-56
2021/01/11 13:58:07;;;;;;;;;;;;;;;;;;5035119;28;19973;-57
2021/01/11 14:00:33;;;;;;;;;;;;;;;;;;5035234;28;19905;-55
2021/01/11 14:02:59;;;;;;;;;;;;;;;;;;5035069;28;19926;-55
2021/01/11 14:05:25;;;;;;;;;;;;;;;;;;5035192;28;19921;-57
2021/01/11 14:07:51;;;;;;;;;;;;;;;;;;5035037;28;19905;-57
2021/01/11 14:10:17;;;;;;;;;;;;;;;;;;5035078;28;19921;-56
2021/01/11 14:12:43;;;;;;;;;;;;;;;;;;5034989;28;19927;-57
2021/01/11 14:15:09;;;;;;;;;;;;;;;;;;5035116;28;19926;-57
2021/01/11 14:17:35;;;;;;;;;;;;;;;;;;5034708;28;19988;-57
2021/01/11 14:20:01;;;;;;;;;;;;;;;;;;5035101;28;20024;-57
2021/01/11 14:22:27;;;;;;;;;;;;;;;;;;5034779;28;20516;-57
2021/01/11 14:24:53;;;;;;;;;;;;;;;;;;5034767;28;19929;-56
2021/01/11 14:27:19;;;;;;;;;;;;;;;;;;5034402;28;19926;-57
2021/01/11 14:29:45;;;;;;;;;;;;;;;;;;5034363;28;19928;-57
2021/01/11 14:32:11;;;;;;;;;;;;;;;;;;5034602;28;19921;-55
2021/01/11 14:34:37;;;;;;;;;;;;;;;;;;5034373;28;20422;-57
2021/01/11 14:37:03;;;;;;;;;;;;;;;;;;5034986;28;19948;-55
2021/01/11 14:39:29;;;;;;;;;;;;;;;;;;5054134;28;19927;-58
2021/01/11 14:41:55;;;;;;;;;;;;;;;;;;5054333;28;20019;-57
2021/01/11 14:44:21;;;;;;;;;;;;;;;;;;5054169;28;19932;-58
2021/01/11 14:46:47;;;;;;;;;;;;;;;;;;5054597;28;19919;-58
2021/01/11 14:49:13;;;;;;;;;;;;;;;;;;5054120;28;19932;-58
2021/01/11 14:51:39;;;;;;;;;;;;;;;;;;5054076;28;20002;-58
2021/01/11 14:54:05;;;;;;;;;;;;;;;;;;5054344;28;19945;-58
2021/01/11 14:56:31;;;;;;;;;;;;;;;;;;5053993;28;19931;-58
2021/01/11 14:58:57;;;;;;;;;;;;;;;;;;5053987;28;20017;-58
2021/01/11 15:01:23;;;;;;;;;;;;;;;;;;5054074;28;19920;-58
2021/01/11 15:03:49;;;;;;;;;;;;;;;;;;5054226;28;19908;-59
2021/01/11 15:06:15;;;;;;;;;;;;;;;;;;5053597;28;20316;-58
2021/01/11 15:08:41;;;;;;;;;;;;;;;;;;5054018;28;20380;-59
2021/01/11 15:11:07;;;;;;;;;;;;;;;;;;5053640;28;19919;-59
2021/01/11 15:13:33;;;;;;;;;;;;;;;;;;5053362;28;19955;-58
2021/01/11 15:15:59;;;;;;;;;;;;;;;;;;5037246;28;19927;-58
2021/01/11 15:18:25;;;;;;;;;;;;;;;;;;5044175;28;20408;-58
2021/01/11 15:20:51;;;;;;;;;;;;;;;;;;5041803;28;19953;-58
2021/01/11 15:23:17;;;;;;;;;;;;;;;;;;5042152;28;20003;-58
2021/01/11 15:25:43;;;;;;;;;;;;;;;;;;5043350;28;19938;-58
2021/01/11 15:28:09;;;;;;;;;;;;;;;;;;5046755;28;19923;-58
2021/01/11 15:30:35;;;;;;;;;;;;;;;;;;5053746;28;19921;-59
2021/01/11 15:33:01;;;;;;;;;;;;;;;;;;5053742;28;20349;-59
2021/01/11 15:35:27;;;;;;;;;;;;;;;;;;5053465;28;20056;-60
2021/01/11 15:37:53;;;;;;;;;;;;;;;;;;5053794;28;19948;-59
2021/01/11 15:40:19;;;;;;;;;;;;;;;;;;5059036;28;20327;-59
2021/01/11 15:42:45;;;;;;;;;;;;;;;;;;5060411;28;20448;-58
2021/01/11 15:45:11;;;;;;;;;;;;;;;;;;5060117;28;20433;-59
2021/01/11 15:47:37;;;;;;;;;;;;;;;;;;5060408;28;19962;-59
2021/01/11 15:50:03;;;;;;;;;;;;;;;;;;5060025;28;20324;-58
2021/01/11 15:52:29;;;;;;;;;;;;;;;;;;5060449;28;19991;-60
2021/01/11 15:54:55;;;;;;;;;;;;;;;;;;5060190;28;19963;-59
2021/01/11 15:57:21;;;;;;;;;;;;;;;;;;5059954;28;19940;-59
2021/01/11 15:59:47;;;;;;;;;;;;;;;;;;5060221;28;19920;-60
2021/01/11 16:02:13;;;;;;;;;;;;;;;;;;5059946;28;20379;-60
2021/01/11 16:04:39;;;;;;;;;;;;;;;;;;5059989;28;19923;-61
2021/01/11 16:07:05;;;;;;;;;;;;;;;;;;5060113;28;20236;-61
2021/01/11 16:09:32;;;;;;;;;;;;;;;;;;5058642;28;20023;-59
2021/01/11 16:11:59;;;;;;;;;;;;;;;;;;5056478;28;19966;-59
2021/01/11 16:14:25;;;;;;;;;;;;;;;;;;5059222;28;19925;-60
2021/01/11 16:16:51;;;;;;;;;;;;;;;;;;5059709;28;20316;-59
2021/01/11 16:19:17;;;;;;;;;;;;;;;;;;5059838;28;19919;-60
2021/01/11 16:21:43;;;;;;;;;;;;;;;;;;5059733;28;19919;-60
2021/01/11 16:24:09;;;;;;;;;;;;;;;;;;5039713;28;20334;-59
2021/01/11 16:26:35;;;;;;;;;;;;;;;;;;5037823;28;19919;-60
2021/01/11 16:29:01;;;;;;;;;;;;;;;;;;5037504;28;19944;-58
2021/01/11 16:31:27;;;;;;;;;;;;;;;;;;5052732;28;20022;-59